Keezletown, VA (22832)

9:57 PM EST on December 10, 2016 (GMT -0500)
Skiside | | Change Station

Elev 1762 ft 38.40 °N, 78.75 °W | Updated 8 seconds ago

Clear
Clear
20.5 °F
Feels Like 20 °F
N
0.0
Wind Variable Wind from SSE
Gusts 0.0 mph

Today
High -- | Low -- °F
--% Chance of Precip.
Yesterday
High -- | Low -- °F
Precip. -- in
Pressure 30.47 in
Visibility 10.0 miles
Clouds Scattered Clouds 11000 ft
Windchill 20 °F
Dew Point 14 °F
Humidity 76%
Rainfall 0.00 in
Snow Depth Not available.
7:21 AM 4:54 PM
Waxing Gibbous, 88% visible
METAR KSHD 110235Z AUTO 35003KT 10SM SCT110 M05/M11 A3047 RMK AO2 T10481110
Pressure 30.47 in
Visibility 10.0 miles
Clouds Scattered Clouds 11000 ft
Windchill 20 °F
Dew Point 14 °F
Humidity 76%
Rainfall 0.00 in
Snow Depth Not available.
7:21 AM 4:54 PM
Waxing Gibbous, 88% visible
METAR KSHD 110235Z AUTO 35003KT 10SM SCT110 M05/M11 A3047 RMK AO2 T10481110

10-Day Weather Forecast

Almanac

Astronomy

Dec. 10, 2016 Rise Set
Actual Time
Civil Twilight
Nautical Twilight
Astronomical Twilight
Moon
Length of Visible Light
Length of Day
Tomorrow will be .
, % of the Moon is Illuminated

Today's Extremes

State Highs State Lows

Community

WunderPhotos

Upload Photos

1,956,692 photos uploaded!

WunderBlog® & News

Nearby

Air Quality

  Air Quality AQ Index Pollutant
Not available.

Snow Depth

Station Depth Elevation

Earthquake Activity

City Distance Mag. Time & Date
Minimum magnitude displayed is 2.5.

Coastal Water Temperatures

Place Temperature

Stations

Nearby Weather Stations

Station Location Temp. Windchill Dew Point Humidity Wind Precip. Elev Updated Type
                   

Watches & Warnings

There are currently no watches in effect.